createdAt,value
2018-06-28T00:00:55.164Z,100771.87
2018-06-28T00:03:23.934Z,100765.34
2018-06-28T00:05:52.537Z,100764.61
2018-06-28T00:08:21.100Z,100766.59
2018-06-28T00:10:49.814Z,100774.92
2018-06-28T00:13:18.440Z,100772.47
2018-06-28T00:15:47.049Z,100777.13
2018-06-28T00:18:15.692Z,100779.87
2018-06-28T00:20:44.249Z,100783.06
2018-06-28T00:23:12.888Z,100781.62
2018-06-28T00:25:41.559Z,100780.14
2018-06-28T00:28:10.112Z,100783.30
2018-06-28T00:30:38.720Z,100789.78
2018-06-28T00:33:07.284Z,100784.89
2018-06-28T00:35:35.837Z,100787.86
2018-06-28T00:38:04.416Z,100791.17
2018-06-28T00:40:32.981Z,100791.17
2018-06-28T00:43:01.605Z,100787.35
2018-06-28T00:45:30.161Z,100788.22
2018-06-28T00:47:58.921Z,100785.69
2018-06-28T00:50:27.496Z,100789.77
2018-06-28T00:52:56.092Z,100784.69
2018-06-28T00:55:24.683Z,100777.44
2018-06-28T00:57:53.216Z,100789.95
2018-06-28T01:00:21.870Z,100776.57
2018-06-28T01:02:50.453Z,100770.48
2018-06-28T01:05:19.088Z,100767.03
2018-06-28T01:07:47.681Z,100763.38
2018-06-28T01:10:16.276Z,100764.75
2018-06-28T01:12:45.408Z,100763.98
2018-06-28T01:15:14.164Z,100768.61
2018-06-28T01:17:42.765Z,100768.52
2018-06-28T01:20:11.515Z,100764.88
2018-06-28T01:22:40.132Z,100769.70
2018-06-28T01:25:08.758Z,100764.64
2018-06-28T01:27:37.353Z,100768.63
2018-06-28T01:30:06.441Z,100775.87
2018-06-28T01:32:35.006Z,100771.58
2018-06-28T01:35:03.793Z,100767.89
2018-06-28T01:37:32.456Z,100772.99
2018-06-28T01:40:01.058Z,100772.92
2018-06-28T01:42:45.432Z,100771.88
2018-06-28T01:45:13.988Z,100776.11
2018-06-28T01:47:42.532Z,100775.66
2018-06-28T01:50:11.116Z,100782.53
2018-06-28T01:52:39.932Z,100780.05
2018-06-28T01:55:08.505Z,100775.05
2018-06-28T01:57:37.057Z,100781.02
2018-06-28T02:00:06.236Z,100775.05
2018-06-28T02:02:34.771Z,100776.81
2018-06-28T02:05:03.410Z,100774.58
2018-06-28T02:07:32.300Z,100768.69
2018-06-28T02:10:01.050Z,100769.42
2018-06-28T02:12:29.626Z,100766.30
2018-06-28T02:14:58.598Z,100771.93
2018-06-28T02:17:27.240Z,100768.16
2018-06-28T02:19:55.781Z,100765.95
2018-06-28T02:22:24.592Z,100765.18
2018-06-28T02:24:53.180Z,100763.69
2018-06-28T02:27:21.764Z,100769.23
2018-06-28T02:29:50.392Z,100769.17
2018-06-28T02:32:18.945Z,100771.41
2018-06-28T02:34:47.573Z,100770.66
2018-06-28T02:37:16.186Z,100772.13
2018-06-28T02:39:44.748Z,100769.16
2018-06-28T02:42:13.417Z,100768.52
2018-06-28T02:44:42.060Z,100764.97
2018-06-28T02:47:10.901Z,100768.52
2018-06-28T02:49:39.532Z,100762.72
2018-06-28T02:52:08.144Z,100761.72
2018-06-28T02:54:36.678Z,100764.67
2018-06-28T02:57:05.210Z,100765.66
2018-06-28T02:59:34.008Z,100769.09
2018-06-28T03:02:02.530Z,100765.17
2018-06-28T03:04:31.109Z,100765.72
2018-06-28T03:06:59.752Z,100763.39
2018-06-28T03:09:28.307Z,100764.88
2018-06-28T03:11:57.201Z,100773.42
2018-06-28T03:14:25.824Z,100779.13
2018-06-28T03:16:54.445Z,100776.77
2018-06-28T03:19:23.008Z,100776.63
2018-06-28T03:21:51.611Z,100774.94
2018-06-28T03:24:20.548Z,100775.75
2018-06-28T03:26:49.145Z,100774.33
2018-06-28T03:29:17.682Z,100775.46
2018-06-28T03:31:46.241Z,100777.94
2018-06-28T03:34:15.023Z,100777.57
2018-06-28T03:36:43.837Z,100777.95
2018-06-28T03:39:13.750Z,100783.98
2018-06-28T03:41:42.869Z,100773.04
2018-06-28T03:44:13.212Z,100776.06
2018-06-28T03:46:42.193Z,100774.96
2018-06-28T03:49:11.843Z,100773.56
2018-06-28T03:51:40.728Z,100778.37
2018-06-28T03:54:09.956Z,100776.16
2018-06-28T03:56:39.033Z,100786.01
2018-06-28T03:59:07.868Z,100773.08
2018-06-28T04:01:36.464Z,100775.19
2018-06-28T04:04:05.110Z,100780.69
2018-06-28T04:06:33.754Z,100772.34
2018-06-28T04:09:02.356Z,100765.14
2018-06-28T04:11:30.901Z,100776.48
2018-06-28T04:13:59.498Z,100779.31
2018-06-28T04:16:28.162Z,100782.86
2018-06-28T04:18:56.801Z,100780.72
2018-06-28T04:21:25.408Z,100778.85
2018-06-28T04:23:54.241Z,100780.20
2018-06-28T04:26:23.217Z,100782.98
2018-06-28T04:28:51.797Z,100782.76
2018-06-28T04:31:20.427Z,100788.03
2018-06-28T04:33:49.120Z,100786.14
2018-06-28T04:36:17.716Z,100789.04
2018-06-28T04:38:46.268Z,100786.63
2018-06-28T04:41:14.924Z,100784.22
2018-06-28T04:43:43.497Z,100782.33
2018-06-28T04:46:12.084Z,100783.64
2018-06-28T04:48:40.788Z,100786.28
2018-06-28T04:51:09.378Z,100788.04
2018-06-28T04:53:37.894Z,100785.38
2018-06-28T04:56:06.595Z,100785.09
2018-06-28T04:58:35.164Z,100787.25
2018-06-28T05:01:03.822Z,100784.89
2018-06-28T05:03:32.472Z,100783.59
2018-06-28T05:06:01.032Z,100787.77
2018-06-28T05:08:29.653Z,100791.17
2018-06-28T05:10:58.217Z,100790.34
2018-06-28T05:13:26.780Z,100784.38
2018-06-28T05:15:55.353Z,100790.22
2018-06-28T05:18:23.949Z,100792.49
2018-06-28T05:20:52.474Z,100784.48
2018-06-28T05:23:21.045Z,100784.33
2018-06-28T05:25:49.753Z,100788.06
2018-06-28T05:28:18.392Z,100785.59
2018-06-28T05:30:47.157Z,100789.33
2018-06-28T05:33:15.717Z,100782.87
2018-06-28T05:35:44.290Z,100776.72
2018-06-28T05:38:12.914Z,100777.36
2018-06-28T05:40:41.500Z,100769.95
2018-06-28T05:43:10.109Z,100774.30
2018-06-28T05:45:38.677Z,100780.07
2018-06-28T05:48:07.371Z,100775.30
2018-06-28T05:50:35.984Z,100780.81
2018-06-28T05:53:04.597Z,100783.48
2018-06-28T05:55:33.184Z,100780.23
2018-06-28T05:58:01.872Z,100778.88
2018-06-28T06:00:30.534Z,100780.48
2018-06-28T06:02:59.099Z,100779.72
2018-06-28T06:05:27.653Z,100773.63
2018-06-28T06:07:56.184Z,100770.72
2018-06-28T06:10:24.943Z,100776.72
2018-06-28T06:12:53.692Z,100768.01
2018-06-28T06:15:22.254Z,100772.26
2018-06-28T06:17:50.814Z,100767.20
2018-06-28T06:20:19.488Z,100772.97
2018-06-28T06:22:48.012Z,100766.97
2018-06-28T06:25:16.662Z,100762.33
2018-06-28T06:27:45.300Z,100767.22
2018-06-28T06:30:14.094Z,100766.04
2018-06-28T06:32:42.621Z,100773.88
2018-06-28T06:35:11.165Z,100777.04
2018-06-28T06:37:39.728Z,100768.13
2018-06-28T06:40:08.313Z,100771.67
2018-06-28T06:42:37.152Z,100774.33
2018-06-28T06:45:06.333Z,100772.31
2018-06-28T06:47:35.144Z,100774.69
2018-06-28T06:50:03.828Z,100773.44
2018-06-28T06:52:32.535Z,100776.84
2018-06-28T06:55:01.124Z,100766.44
2018-06-28T06:57:29.738Z,100765.41
2018-06-28T06:59:58.368Z,100756.31
2018-06-28T07:02:26.901Z,100761.04
2018-06-28T07:04:55.552Z,100760.13
2018-06-28T07:07:24.209Z,100764.74
2018-06-28T07:09:52.692Z,100768.80
2018-06-28T07:12:21.280Z,100767.55
2018-06-28T07:14:50.009Z,100762.14
2018-06-28T07:17:18.944Z,100763.58
2018-06-28T07:19:47.709Z,100766.72
2018-06-28T07:22:16.264Z,100764.12
2018-06-28T07:24:44.929Z,100760.55
2018-06-28T07:27:13.550Z,100760.23
2018-06-28T07:29:42.120Z,100763.38
2018-06-28T07:32:10.685Z,100758.83
2018-06-28T07:34:39.302Z,100758.87
2018-06-28T07:37:07.821Z,100756.68
2018-06-28T07:39:36.492Z,100756.19
2018-06-28T07:42:05.066Z,100759.98
2018-06-28T07:44:33.652Z,100752.55
2018-06-28T07:47:02.345Z,100753.53
2018-06-28T07:49:31.049Z,100750.69
2018-06-28T07:51:59.776Z,100751.62
2018-06-28T07:54:28.469Z,100748.24
2018-06-28T07:56:57.153Z,100751.91
2018-06-28T07:59:26.000Z,100741.73
2018-06-28T08:01:54.548Z,100737.00
2018-06-28T08:04:23.096Z,100745.63
2018-06-28T08:06:51.880Z,100738.59
2018-06-28T08:09:20.405Z,100735.17
2018-06-28T08:11:48.973Z,100735.53
2018-06-28T08:14:17.621Z,100734.56
2018-06-28T08:16:46.221Z,100727.74
2018-06-28T08:19:14.849Z,100731.81
2018-06-28T08:21:43.432Z,100728.25
2018-06-28T08:24:12.036Z,100728.63
2018-06-28T08:26:40.614Z,100728.00
2018-06-28T08:29:09.218Z,100734.30
2018-06-28T08:31:37.837Z,100729.23
2018-06-28T08:34:06.723Z,100722.18
2018-06-28T08:36:35.651Z,100726.20
2018-06-28T08:39:06.414Z,100725.37
2018-06-28T08:41:35.308Z,100724.28
2018-06-28T08:44:03.924Z,100710.97
2018-06-28T08:46:32.576Z,100716.23
2018-06-28T08:49:01.208Z,100712.78
2018-06-28T08:51:29.807Z,100707.22
2018-06-28T08:53:58.514Z,100710.77
2018-06-28T08:56:27.133Z,100710.03
2018-06-28T08:58:55.684Z,100710.41
2018-06-28T09:01:24.260Z,100703.67
2018-06-28T09:03:52.777Z,100699.30
2018-06-28T09:06:21.369Z,100707.19
2018-06-28T09:08:49.992Z,100704.32
2018-06-28T09:11:18.921Z,100707.39
2018-06-28T09:13:47.437Z,100701.77
2018-06-28T09:16:15.977Z,100695.64
2018-06-28T09:18:44.809Z,100702.69
2018-06-28T09:21:13.504Z,100695.59
2018-06-28T09:23:42.125Z,100689.69
2018-06-28T09:26:10.738Z,100694.41
2018-06-28T09:28:39.307Z,100703.00
2018-06-28T09:31:07.892Z,100689.30
2018-06-28T09:33:36.524Z,100693.65
2018-06-28T09:36:05.136Z,100679.91
2018-06-28T09:38:33.692Z,100672.77
2018-06-28T09:41:02.316Z,100671.05
2018-06-28T09:43:30.877Z,100671.88
2018-06-28T09:45:59.468Z,100663.43
2018-06-28T09:48:28.142Z,100656.91
2018-06-28T09:50:56.661Z,100663.02
2018-06-28T09:53:25.244Z,100666.48
2018-06-28T09:55:53.758Z,100653.73
2018-06-28T09:58:22.425Z,100657.77
2018-06-28T10:00:51.068Z,100660.58
2018-06-28T10:03:19.635Z,100654.58
2018-06-28T10:05:48.209Z,100650.66
2018-06-28T10:08:16.700Z,100649.92
2018-06-28T10:10:45.262Z,100658.95
2018-06-28T10:13:13.977Z,100647.86
2018-06-28T10:15:42.616Z,100639.41
2018-06-28T10:18:11.301Z,100654.00
2018-06-28T10:20:39.830Z,100631.89
2018-06-28T10:23:08.668Z,100633.30
2018-06-28T10:25:37.248Z,100633.95
2018-06-28T10:28:05.934Z,100638.18
2018-06-28T10:30:34.513Z,100634.11
2018-06-28T10:33:03.119Z,100628.78
2018-06-28T10:35:31.716Z,100625.05
2018-06-28T10:38:00.252Z,100619.36
2018-06-28T10:40:29.052Z,100615.27
2018-06-28T10:42:57.608Z,100619.93
2018-06-28T10:45:26.285Z,100615.97
2018-06-28T10:47:54.820Z,100620.66
2018-06-28T10:50:23.411Z,100611.62
2018-06-28T10:52:51.972Z,100612.77
2018-06-28T10:55:20.495Z,100612.63
2018-06-28T10:57:49.526Z,100608.25
2018-06-28T11:00:18.520Z,100599.27
2018-06-28T11:02:47.458Z,100600.77
2018-06-28T11:05:16.104Z,100596.00
2018-06-28T11:07:44.643Z,100596.34
2018-06-28T11:10:13.202Z,100593.87
2018-06-28T11:12:41.772Z,100593.09
2018-06-28T11:15:10.404Z,100580.25
2018-06-28T11:17:39.055Z,100580.85
2018-06-28T11:20:07.592Z,100581.81
2018-06-28T11:22:36.233Z,100573.66
2018-06-28T11:25:04.900Z,100581.88
2018-06-28T11:27:33.507Z,100570.38
2018-06-28T11:30:02.101Z,100569.40
2018-06-28T11:32:30.716Z,100565.39
2018-06-28T11:34:59.291Z,100585.73
2018-06-28T11:37:27.838Z,100561.23
2018-06-28T11:39:56.629Z,100556.03
2018-06-28T11:42:25.199Z,100558.50
2018-06-28T11:44:53.753Z,100555.97
2018-06-28T11:47:22.456Z,100544.11
2018-06-28T11:49:51.014Z,100552.95
2018-06-28T11:52:19.754Z,100551.31
2018-06-28T11:54:48.336Z,100542.48
2018-06-28T11:57:16.889Z,100537.06
2018-06-28T11:59:45.438Z,100525.28
2018-06-28T12:02:14.164Z,100523.55
2018-06-28T12:04:42.836Z,100517.71
2018-06-28T12:07:11.412Z,100528.37
2018-06-28T12:09:40.029Z,100525.08
2018-06-28T12:12:08.623Z,100530.64
2018-06-28T12:14:37.336Z,100523.78
2018-06-28T12:17:06.420Z,100516.70
2018-06-28T12:19:35.072Z,100514.41
2018-06-28T12:22:03.750Z,100511.64
2018-06-28T12:24:32.276Z,100517.06
2018-06-28T12:27:01.372Z,100508.49
2018-06-28T12:29:30.256Z,100508.73
2018-06-28T12:31:58.916Z,100507.53
2018-06-28T12:34:27.548Z,100502.42
2018-06-28T12:36:56.564Z,100500.95
2018-06-28T12:39:25.216Z,100493.88
2018-06-28T12:41:53.768Z,100511.03
2018-06-28T12:44:22.361Z,100490.45
2018-06-28T12:48:59.132Z,100487.32
2018-06-28T12:51:38.940Z,100480.36
2018-06-28T12:54:07.590Z,100499.66
2018-06-28T12:56:37.630Z,100480.05
2018-06-28T12:59:08.923Z,100481.02
2018-06-28T13:01:37.477Z,100474.01
2018-06-28T13:04:06.226Z,100479.42
2018-06-28T13:06:34.865Z,100469.23
2018-06-28T13:09:04.993Z,100467.13
2018-06-28T13:11:33.576Z,100478.84
2018-06-28T13:14:02.222Z,100462.61
2018-06-28T13:16:30.844Z,100464.64
2018-06-28T13:18:59.458Z,100455.03
2018-06-28T13:21:28.009Z,100460.93
2018-06-28T13:23:56.708Z,100455.97
2018-06-28T13:26:25.368Z,100444.95
2018-06-28T13:28:53.985Z,100452.61
2018-06-28T13:31:22.652Z,100445.19
2018-06-28T13:33:51.609Z,100452.84
2018-06-28T13:36:20.148Z,100446.22
2018-06-28T13:38:48.907Z,100438.75
2018-06-28T13:41:17.782Z,100432.41
2018-06-28T13:43:46.169Z,100431.36
2018-06-28T13:46:14.887Z,100435.98
2018-06-28T13:48:43.701Z,100429.30
2018-06-28T13:51:12.372Z,100412.51
2018-06-28T13:53:41.096Z,100409.50
2018-06-28T13:56:09.816Z,100416.34
2018-06-28T13:58:38.492Z,100416.80
2018-06-28T14:01:07.145Z,100432.34
2018-06-28T14:03:35.852Z,100424.50
2018-06-28T14:06:04.566Z,100413.20
2018-06-28T14:08:33.244Z,100405.20
2018-06-28T14:11:01.861Z,100404.29
2018-06-28T14:13:30.447Z,100405.72
2018-06-28T14:15:59.064Z,100397.40
2018-06-28T14:18:27.893Z,100402.64
2018-06-28T14:20:56.421Z,100390.34
2018-06-28T14:23:25.001Z,100391.89
2018-06-28T14:25:53.717Z,100402.59
2018-06-28T14:28:22.308Z,100380.03
2018-06-28T14:30:51.117Z,100373.84
2018-06-28T14:33:19.828Z,100377.61
2018-06-28T14:35:48.448Z,100368.31
2018-06-28T14:38:17.001Z,100368.06
2018-06-28T14:40:45.622Z,100367.41
2018-06-28T14:43:14.184Z,100360.31
2018-06-28T14:45:42.835Z,100356.83
2018-06-28T14:48:11.384Z,100350.58
2018-06-28T14:50:40.169Z,100349.70
2018-06-28T14:53:08.664Z,100343.47
2018-06-28T14:55:37.308Z,100342.63
2018-06-28T14:58:06.009Z,100340.42
2018-06-28T15:00:34.620Z,100343.00
2018-06-28T15:03:03.173Z,100337.41
2018-06-28T15:05:31.784Z,100331.41
2018-06-28T15:08:00.411Z,100332.69
2018-06-28T15:10:29.056Z,100331.52
2018-06-28T15:12:57.688Z,100328.30
2018-06-28T15:15:26.263Z,100326.09
2018-06-28T15:17:54.913Z,100326.06
2018-06-28T15:20:23.547Z,100326.75
2018-06-28T15:22:52.179Z,100330.05
2018-06-28T15:25:20.852Z,100332.27
2018-06-28T15:27:50.351Z,100332.56
2018-06-28T15:30:18.856Z,100319.75
2018-06-28T15:32:47.409Z,100328.16
2018-06-28T15:35:16.331Z,100324.84
2018-06-28T15:37:45.092Z,100326.59
2018-06-28T15:40:13.781Z,100327.14
2018-06-28T15:42:42.393Z,100334.26
2018-06-28T15:45:11.044Z,100326.28
2018-06-28T15:47:39.869Z,100327.97
2018-06-28T15:50:08.664Z,100324.82
2018-06-28T15:52:37.584Z,100323.85
2018-06-28T15:55:06.241Z,100334.96
2018-06-28T15:57:35.035Z,100329.28
2018-06-28T16:00:03.721Z,100326.39
2018-06-28T16:02:32.468Z,100325.77
2018-06-28T16:05:01.093Z,100328.11
2018-06-28T16:07:29.633Z,100326.08
2018-06-28T16:09:58.260Z,100321.63
2018-06-28T16:12:26.805Z,100319.48
2018-06-28T16:14:55.668Z,100315.45
2018-06-28T16:17:24.316Z,100321.39
2018-06-28T16:19:52.939Z,100324.77
2018-06-28T16:22:21.508Z,100321.69
2018-06-28T16:24:50.039Z,100319.74
2018-06-28T16:27:18.617Z,100319.72
2018-06-28T16:29:47.184Z,100321.99
2018-06-28T16:32:15.784Z,100326.34
2018-06-28T16:34:44.544Z,100318.91
2018-06-28T16:37:13.104Z,100324.81
2018-06-28T16:39:41.624Z,100325.78
2018-06-28T16:42:10.304Z,100315.95
2018-06-28T16:44:38.905Z,100316.46
2018-06-28T16:47:07.472Z,100311.02
2018-06-28T16:49:36.065Z,100313.80
2018-06-28T16:52:04.728Z,100313.59
2018-06-28T16:54:33.280Z,100312.45
2018-06-28T16:57:01.836Z,100314.56
2018-06-28T16:59:30.585Z,100308.25
2018-06-28T17:01:59.187Z,100305.37
2018-06-28T17:04:27.971Z,100307.36
2018-06-28T17:06:56.544Z,100303.11
2018-06-28T17:09:25.124Z,100302.84
2018-06-28T17:11:53.787Z,100298.92
2018-06-28T17:14:22.424Z,100301.27
2018-06-28T17:16:50.976Z,100299.14
2018-06-28T17:19:19.540Z,100297.76
2018-06-28T17:21:48.266Z,100301.95
2018-06-28T17:24:16.851Z,100304.16
2018-06-28T17:26:45.421Z,100306.54
2018-06-28T17:29:13.964Z,100306.23
2018-06-28T17:31:42.895Z,100299.58
2018-06-28T17:34:11.450Z,100298.77
2018-06-28T17:36:39.973Z,100298.67
2018-06-28T17:39:09.612Z,100297.45
2018-06-28T17:41:38.688Z,100297.06
2018-06-28T17:44:07.489Z,100292.61
2018-06-28T17:46:36.052Z,100295.40
2018-06-28T17:49:04.688Z,100295.84
2018-06-28T17:51:33.241Z,100295.28
2018-06-28T17:54:01.848Z,100293.27
2018-06-28T17:56:30.612Z,100294.13
2018-06-28T17:58:59.135Z,100297.16
2018-06-28T18:01:27.751Z,100293.27
2018-06-28T18:03:56.333Z,100294.92
2018-06-28T18:06:24.919Z,100297.05
2018-06-28T18:08:53.590Z,100298.48
2018-06-28T18:11:22.248Z,100303.34
2018-06-28T18:13:50.856Z,100297.98
2018-06-28T18:16:19.472Z,100293.70
2018-06-28T18:18:48.473Z,100299.72
2018-06-28T18:21:17.076Z,100297.03
2018-06-28T18:23:45.656Z,100301.64
2018-06-28T18:26:14.356Z,100307.34
2018-06-28T18:28:42.964Z,100301.33
2018-06-28T18:31:11.794Z,100298.98
2018-06-28T18:33:40.284Z,100302.21
2018-06-28T18:36:08.957Z,100300.54
2018-06-28T18:38:37.692Z,100298.77
2018-06-28T18:41:08.565Z,100297.73
2018-06-28T18:43:37.364Z,100306.04
2018-06-28T18:46:06.400Z,100299.88
2018-06-28T18:48:35.049Z,100305.25
2018-06-28T18:51:03.789Z,100300.67
2018-06-28T18:53:32.656Z,100303.04
2018-06-28T18:56:01.706Z,100298.47
2018-06-28T18:58:30.464Z,100306.11
2018-06-28T19:00:59.084Z,100306.66
2018-06-28T19:03:27.656Z,100310.73
2018-06-28T19:05:56.296Z,100303.97
2018-06-28T19:08:24.801Z,100303.21
2018-06-28T19:10:54.833Z,100301.97
2018-06-28T19:13:24.686Z,100302.32
2018-06-28T19:15:58.860Z,100302.28
2018-06-28T19:18:27.728Z,100309.77
2018-06-28T19:21:01.741Z,100308.73
2018-06-28T19:23:35.505Z,100304.69
2018-06-28T19:26:04.312Z,100305.25
2018-06-28T19:28:32.969Z,100303.39
2018-06-28T19:31:06.761Z,100313.60
2018-06-28T19:33:35.380Z,100311.73
2018-06-28T19:36:03.981Z,100316.03
2018-06-28T19:38:37.970Z,100317.78
2018-06-28T19:41:11.881Z,100320.03
2018-06-28T19:43:40.508Z,100317.84
2018-06-28T19:46:09.181Z,100321.55
2018-06-28T19:48:37.709Z,100320.37
2018-06-28T19:51:11.744Z,100324.94
2018-06-28T19:53:40.325Z,100326.69
2018-06-28T19:56:08.976Z,100322.63
2018-06-28T19:58:37.580Z,100334.80
2018-06-28T20:01:11.560Z,100329.72
2018-06-28T20:03:45.444Z,100339.76
2018-06-28T20:06:13.981Z,100336.54
2018-06-28T20:08:42.531Z,100342.58
2018-06-28T20:11:11.195Z,100343.72
2018-06-28T20:13:44.928Z,100343.08
2018-06-28T20:16:18.634Z,100343.55
2018-06-28T20:18:52.439Z,100339.73
2018-06-28T20:21:20.974Z,100341.22
2018-06-28T20:23:49.661Z,100355.06
2018-06-28T20:26:23.389Z,100363.55
2018-06-28T20:28:57.244Z,100362.30
2018-06-28T20:31:31.081Z,100362.84
2018-06-28T20:34:04.946Z,100356.37
2018-06-28T20:36:33.481Z,100362.16
2018-06-28T20:39:01.986Z,100362.63
2018-06-28T20:41:30.589Z,100369.63
2018-06-28T20:43:59.307Z,100367.05
2018-06-28T20:46:27.952Z,100361.98
2018-06-28T20:48:56.828Z,100363.68
2018-06-28T20:51:25.492Z,100369.14
2018-06-28T20:53:54.061Z,100377.83
2018-06-28T20:56:22.769Z,100377.78
2018-06-28T20:58:51.412Z,100387.17
2018-06-28T21:01:20.088Z,100379.61
2018-06-28T21:03:48.800Z,100378.77
2018-06-28T21:06:17.348Z,100386.66
2018-06-28T21:08:45.963Z,100380.47
2018-06-28T21:11:14.772Z,100395.57
2018-06-28T21:13:43.348Z,100398.73
2018-06-28T21:16:11.924Z,100403.72
2018-06-28T21:18:40.537Z,100406.14
2018-06-28T21:21:09.160Z,100399.23
2018-06-28T21:23:37.921Z,100392.95
2018-06-28T21:26:06.557Z,100401.48
2018-06-28T21:28:35.111Z,100401.96
2018-06-28T21:31:03.760Z,100403.70
2018-06-28T21:33:32.416Z,100409.39
2018-06-28T21:36:01.277Z,100402.20
2018-06-28T21:38:29.829Z,100399.54
2018-06-28T21:40:58.860Z,100395.55
2018-06-28T21:43:27.367Z,100402.56
2018-06-28T21:45:55.996Z,100410.34
2018-06-28T21:48:24.631Z,100404.78
2018-06-28T21:50:53.199Z,100406.50
2018-06-28T21:53:21.772Z,100396.50
2018-06-28T21:55:50.392Z,100400.83
2018-06-28T21:58:19.237Z,100400.70
2018-06-28T22:00:47.777Z,100404.00
2018-06-28T22:03:16.421Z,100399.84
2018-06-28T22:05:45.021Z,100399.16
2018-06-28T22:08:13.654Z,100400.15
2018-06-28T22:10:42.188Z,100404.25
2018-06-28T22:13:10.768Z,100404.25
2018-06-28T22:15:39.504Z,100396.14
2018-06-28T22:18:08.029Z,100395.89
2018-06-28T22:20:36.573Z,100393.03
2018-06-28T22:23:05.230Z,100390.81
2018-06-28T22:25:33.750Z,100381.66
2018-06-28T22:28:02.293Z,100378.03
2018-06-28T22:30:30.832Z,100380.73
2018-06-28T22:32:59.375Z,100377.16
2018-06-28T22:35:27.924Z,100371.45
2018-06-28T22:37:56.564Z,100369.86
2018-06-28T22:40:25.109Z,100368.05
2018-06-28T22:42:53.651Z,100371.16
2018-06-28T22:45:22.235Z,100372.23
2018-06-28T22:47:50.830Z,100368.05
2018-06-28T22:50:19.560Z,100367.74
2018-06-28T22:52:48.164Z,100361.73
2018-06-28T22:55:16.806Z,100368.38
2018-06-28T22:57:45.424Z,100368.42
2018-06-28T23:00:19.996Z,100374.41
2018-06-28T23:02:48.540Z,100379.05
2018-06-28T23:05:17.140Z,100372.72
2018-06-28T23:07:45.691Z,100377.98
2018-06-28T23:10:14.452Z,100373.50
2018-06-28T23:12:43.468Z,100373.26
2018-06-28T23:15:12.037Z,100368.69
2018-06-28T23:17:40.629Z,100368.15
2018-06-28T23:20:09.236Z,100374.94
2018-06-28T23:22:50.943Z,100376.28
2018-06-28T23:25:20.068Z,100387.73
2018-06-28T23:27:49.459Z,100386.23
2018-06-28T23:30:18.745Z,100389.19
2018-06-28T23:32:47.174Z,100388.16
2018-06-28T23:35:15.801Z,100384.08
2018-06-28T23:37:44.380Z,100381.01
2018-06-28T23:40:12.921Z,100384.08
2018-06-28T23:42:41.568Z,100385.20
2018-06-28T23:45:10.769Z,100377.81
2018-06-28T23:47:39.493Z,100373.48
2018-06-28T23:50:09.276Z,100374.39
2018-06-28T23:52:37.844Z,100367.96
2018-06-28T23:55:07.416Z,100368.21
2018-06-28T23:57:36.524Z,100373.39
